Time;durP1;ratioP1;P1;durP2;ratioP2;P2;SDS_P1;SDS_P2;PMS_P1;PMS_P2;Temp;Humidity;BMP_temperature;BMP_pressure;BME280_temperature;BME280_humidity;BME280_pressure;Samples;Min_cycle;Max_cycle;Signal;HPM_P1;HPM_P2
2023/06/25 00:01:21;;;;;;;13.95;8.35;;;;;;;19.95;69.63;99373.56;4987127;28;20026;-82
2023/06/25 00:03:46;;;;;;;9.85;8.15;;;;;;;19.95;69.43;99379.81;4975431;28;20125;-82
2023/06/25 00:06:11;;;;;;;14.60;8.30;;;;;;;19.94;69.17;99378.19;4984927;28;20257;-82
2023/06/25 00:08:37;;;;;;;12.40;8.02;;;;;;;20.01;69.20;99377.78;4981000;28;20038;-82
2023/06/25 00:11:02;;;;;;;8.30;7.40;;;;;;;19.98;69.28;99373.00;4987961;28;20042;-82
2023/06/25 00:13:28;;;;;;;12.55;7.72;;;;;;;19.88;69.58;99368.53;4968118;28;20064;-82
2023/06/25 00:15:53;;;;;;;12.35;8.48;;;;;;;19.84;69.23;99372.94;4987441;28;20034;-82
2023/06/25 00:18:18;;;;;;;9.75;7.90;;;;;;;19.82;69.81;99377.84;4990508;28;20455;-82
2023/06/25 00:20:46;;;;;;;11.65;7.70;;;;;;;19.75;69.87;99365.75;4979045;28;20034;-82
2023/06/25 00:23:12;;;;;;;11.20;7.72;;;;;;;19.65;69.93;99363.22;4959942;28;20043;-82
2023/06/25 00:25:37;;;;;;;9.25;7.95;;;;;;;19.73;70.07;99366.06;4953528;28;20147;-82
2023/06/25 00:28:07;;;;;;;10.40;8.55;;;;;;;19.67;70.19;99367.25;4979846;28;20459;-82
2023/06/25 00:30:33;;;;;;;9.63;8.60;;;;;;;19.67;70.07;99361.03;4972962;28;20030;-82
2023/06/25 00:32:58;;;;;;;9.50;7.72;;;;;;;19.71;69.61;99359.34;4981000;28;20057;-82
2023/06/25 00:35:27;;;;;;;9.82;7.85;;;;;;;19.57;69.61;99356.56;4978784;28;20061;-82
2023/06/25 00:37:57;;;;;;;9.52;7.70;;;;;;;19.70;69.63;99363.94;4970889;28;20034;-82
2023/06/25 00:40:23;;;;;;;9.60;8.30;;;;;;;19.31;70.75;99355.31;4978678;28;20027;-82
2023/06/25 00:42:58;;;;;;;12.25;8.77;;;;;;;19.22;71.18;99357.88;4980842;28;20093;-82
2023/06/25 00:45:26;;;;;;;10.73;7.90;;;;;;;19.20;71.47;99357.34;4962304;28;20043;-82
2023/06/25 00:47:53;;;;;;;9.77;7.85;;;;;;;19.48;70.25;99352.13;4979427;28;20033;-82
2023/06/25 00:50:21;;;;;;;8.60;7.75;;;;;;;19.51;69.74;99344.22;4976477;28;20447;-82
2023/06/25 00:52:48;;;;;;;9.70;7.70;;;;;;;19.43;70.01;99353.81;4979236;28;20105;-82
2023/06/25 00:55:14;;;;;;;13.02;7.55;;;;;;;19.41;69.99;99356.00;4979892;28;20062;-82
2023/06/25 00:57:41;;;;;;;10.43;8.13;;;;;;;19.35;70.11;99349.03;4961948;28;20030;-82
2023/06/25 01:00:16;;;;;;;7.97;7.20;;;;;;;19.42;70.54;99356.78;4968616;28;20038;-82
2023/06/25 01:02:46;;;;;;;10.55;9.23;;;;;;;19.42;70.05;99354.09;4972645;28;20034;-82
2023/06/25 01:05:38;;;;;;;12.23;8.73;;;;;;;19.44;70.17;99347.28;4978757;28;20038;-82
2023/06/25 01:08:08;;;;;;;11.27;8.68;;;;;;;19.34;70.41;99347.44;4981654;28;20030;-82
2023/06/25 01:10:35;;;;;;;10.48;9.27;;;;;;;19.34;70.09;99344.75;4984798;28;20034;-82
2023/06/25 01:13:00;;;;;;;10.68;8.07;;;;;;;19.24;70.39;99344.84;4991692;28;20387;-82
2023/06/25 01:15:26;;;;;;;9.35;7.28;;;;;;;19.25;70.39;99351.88;4971424;28;20022;-82
2023/06/25 01:17:51;;;;;;;9.57;8.55;;;;;;;19.31;70.34;99345.28;4986714;28;20026;-82
2023/06/25 01:20:17;;;;;;;10.77;8.23;;;;;;;19.22;70.33;99341.63;4985676;28;20483;-82
2023/06/25 01:22:42;;;;;;;8.85;7.45;;;;;;;19.09;70.88;99342.34;4983885;28;20482;-82
2023/06/25 01:25:09;;;;;;;9.05;8.15;;;;;;;19.26;70.56;99348.06;4980017;28;20031;-82
2023/06/25 01:27:35;;;;;;;10.20;7.68;;;;;;;19.14;70.57;99345.00;4979295;28;20565;-82
2023/06/25 01:30:02;;;;;;;10.90;8.13;;;;;;;18.56;72.24;99349.00;4989752;28;20475;-82
2023/06/25 01:32:27;;;;;;;13.98;8.65;;;;;;;17.93;74.47;99340.16;4984155;28;20034;-82
2023/06/25 01:34:53;;;;;;;16.20;9.60;;;;;;;17.41;76.57;99346.19;4965428;28;20244;-82
2023/06/25 01:37:18;;;;;;;15.73;9.23;;;;;;;16.90;78.57;99337.63;4984214;28;20029;-82
2023/06/25 01:39:50;;;;;;;11.10;8.40;;;;;;;17.17;76.76;99346.09;4972116;28;20533;-82
2023/06/25 01:42:15;;;;;;;13.57;8.93;;;;;;;17.97;75.17;99336.59;4988079;28;20600;-82
2023/06/25 01:44:41;;;;;;;10.38;7.93;;;;;;;18.39;72.81;99335.09;4982610;28;20129;-82
2023/06/25 01:47:06;;;;;;;11.60;8.38;;;;;;;18.40;72.46;99334.00;4982178;28;20038;-82
2023/06/25 01:49:32;;;;;;;17.10;8.98;;;;;;;18.04;73.81;99332.75;4977702;28;20038;-82
2023/06/25 01:51:57;;;;;;;16.67;9.57;;;;;;;17.48;76.40;99341.28;4982662;28;20034;-81
2023/06/25 01:54:23;;;;;;;11.52;8.77;;;;;;;17.72;74.88;99333.31;4986234;28;20092;-82
2023/06/25 01:56:48;;;;;;;8.05;7.25;;;;;;;18.16;73.07;99331.28;4969630;28;20050;-82
2023/06/25 01:59:13;;;;;;;13.80;8.68;;;;;;;18.28;73.00;99330.91;4970902;28;20039;-82
2023/06/25 02:01:39;;;;;;;14.57;9.52;;;;;;;18.25;72.71;99323.34;4969255;28;20030;-82
2023/06/25 02:04:04;;;;;;;17.40;9.57;;;;;;;17.95;73.53;99316.38;4982601;28;20061;-82
2023/06/25 02:06:30;;;;;;;12.35;8.48;;;;;;;17.58;75.00;99319.63;5000060;28;20555;-82
2023/06/25 02:08:56;;;;;;;15.07;8.65;;;;;;;17.27;76.82;99322.81;4985384;28;20505;-82
2023/06/25 02:11:21;;;;;;;9.82;6.88;;;;;;;17.27;76.46;99325.53;4985905;28;20061;-82
2023/06/25 02:13:47;;;;;;;13.38;9.77;;;;;;;17.02;77.11;99310.28;4986178;28;20026;-82
2023/06/25 02:16:12;;;;;;;14.60;9.25;;;;;;;17.26;76.33;99327.41;4977654;28;20430;-82
2023/06/25 02:18:38;;;;;;;19.98;9.57;;;;;;;16.94;77.81;99317.09;4972444;28;20034;-82
2023/06/25 02:21:04;;;;;;;9.63;8.07;;;;;;;17.16;76.76;99311.31;4975105;28;20061;-82
2023/06/25 02:23:29;;;;;;;13.63;8.30;;;;;;;17.89;74.33;99315.59;4982987;28;20121;-82
2023/06/25 02:25:54;;;;;;;10.32;7.68;;;;;;;17.85;73.48;99319.16;4978085;28;20041;-82
2023/06/25 02:28:20;;;;;;;16.88;8.93;;;;;;;17.39;75.51;99317.88;4988055;28;20034;-82
2023/06/25 02:30:45;;;;;;;14.65;8.70;;;;;;;17.88;74.36;99315.88;4982310;28;20027;-82
2023/06/25 02:33:11;;;;;;;11.30;8.25;;;;;;;18.05;73.24;99304.66;4980867;28;20030;-82
2023/06/25 02:35:37;;;;;;;11.57;7.47;;;;;;;18.13;72.91;99312.94;4983829;28;20080;-82
2023/06/25 02:38:02;;;;;;;10.57;7.63;;;;;;;18.21;72.62;99316.91;4989022;28;20529;-82
2023/06/25 02:40:28;;;;;;;11.75;8.75;;;;;;;17.38;75.23;99303.59;4986706;28;20502;-82
2023/06/25 02:42:57;;;;;;;9.60;7.50;;;;;;;17.54;74.92;99324.00;4973522;28;20046;-82
2023/06/25 02:45:23;;;;;;;11.90;8.25;;;;;;;17.94;73.66;99323.66;4981037;28;20037;-82
2023/06/25 02:47:48;;;;;;;22.90;9.18;;;;;;;17.93;72.72;99322.03;4981142;28;20030;-82
2023/06/25 02:50:14;;;;;;;10.55;7.00;;;;;;;17.66;74.40;99327.16;4982339;28;20035;-81
2023/06/25 02:52:39;;;;;;;11.52;7.85;;;;;;;17.90;73.04;99319.13;4989315;28;20069;-82
2023/06/25 02:55:05;;;;;;;11.55;8.45;;;;;;;18.00;72.85;99313.59;4967975;28;20031;-82
2023/06/25 02:57:30;;;;;;;14.48;8.52;;;;;;;18.21;72.25;99323.13;4984598;28;20068;-82
2023/06/25 02:59:57;;;;;;;12.68;7.90;;;;;;;18.12;72.37;99307.81;4981381;28;20395;-82
2023/06/25 03:02:22;;;;;;;15.50;8.63;;;;;;;18.10;72.74;99307.31;4977662;28;20038;-82
2023/06/25 03:04:48;;;;;;;8.50;7.60;;;;;;;18.21;72.34;99322.31;4985550;28;20030;-82
2023/06/25 03:07:13;;;;;;;12.55;7.97;;;;;;;18.20;72.10;99318.00;4986219;28;20120;-82
2023/06/25 03:09:39;;;;;;;13.40;7.05;;;;;;;18.15;72.58;99320.78;4979156;28;20026;-82
2023/06/25 03:12:04;;;;;;;12.85;7.80;;;;;;;18.18;72.60;99317.47;4982233;28;20077;-81
2023/06/25 03:14:30;;;;;;;11.93;8.48;;;;;;;17.99;72.61;99314.72;4981093;28;20152;-82
2023/06/25 03:16:56;;;;;;;10.45;8.10;;;;;;;17.81;73.81;99318.91;4966686;28;20030;-81
2023/06/25 03:19:21;;;;;;;9.25;7.63;;;;;;;17.98;73.04;99313.09;4982609;28;20497;-82
2023/06/25 03:21:47;;;;;;;11.35;7.18;;;;;;;17.97;72.88;99314.19;4986231;28;20072;-82
2023/06/25 03:24:12;;;;;;;13.02;8.20;;;;;;;18.02;72.50;99318.75;4988538;28;20029;-81
2023/06/25 03:26:38;;;;;;;14.02;7.57;;;;;;;17.82;73.56;99319.75;4980477;28;20034;-81
2023/06/25 03:29:03;;;;;;;13.32;8.18;;;;;;;17.55;74.36;99325.63;4970793;28;20149;-82
2023/06/25 03:31:29;;;;;;;10.93;7.85;;;;;;;17.83;73.64;99321.34;4990632;28;20041;-82
2023/06/25 03:33:54;;;;;;;16.52;8.10;;;;;;;17.98;73.07;99322.00;4970610;28;20041;-81
2023/06/25 03:36:19;;;;;;;10.60;7.53;;;;;;;18.02;73.03;99321.44;4982434;28;20467;-81
2023/06/25 03:38:45;;;;;;;12.60;8.10;;;;;;;17.93;73.26;99319.34;4955405;28;20034;-81
2023/06/25 03:41:10;;;;;;;18.38;8.50;;;;;;;18.04;73.10;99321.97;4982008;28;20034;-81
2023/06/25 03:43:35;;;;;;;14.20;7.43;;;;;;;18.12;72.88;99322.13;4978059;28;20119;-82
2023/06/25 03:46:01;;;;;;;12.75;7.90;;;;;;;18.03;72.45;99310.34;4989739;28;20096;-81
2023/06/25 03:48:26;;;;;;;16.38;8.35;;;;;;;18.01;72.73;99309.00;4971107;28;20033;-82
2023/06/25 03:50:54;;;;;;;13.70;8.65;;;;;;;17.80;73.54;99317.28;4981675;28;20037;-81
2023/06/25 03:53:20;;;;;;;11.85;8.32;;;;;;;17.84;73.52;99299.44;4973555;28;20502;-81
2023/06/25 03:55:45;;;;;;;20.40;8.43;;;;;;;18.01;73.31;99311.72;4971001;28;20018;-81
2023/06/25 03:58:11;;;;;;;14.38;8.82;;;;;;;18.02;73.27;99307.94;4973353;28;20479;-81
2023/06/25 04:00:36;;;;;;;9.30;7.95;;;;;;;17.93;72.81;99308.53;4984819;28;20034;-82
2023/06/25 04:03:02;;;;;;;10.55;7.75;;;;;;;17.34;77.10;99310.66;4953429;28;20069;-81
2023/06/25 04:05:27;;;;;;;8.93;8.00;;;;;;;17.69;74.58;99304.97;4978426;28;20116;-82
2023/06/25 04:07:53;;;;;;;13.65;8.20;;;;;;;17.19;78.81;99310.72;4982665;28;20128;-81
2023/06/25 04:10:18;;;;;;;9.68;8.40;;;;;;;17.28;76.91;99271.28;4982662;28;20610;-82
2023/06/25 04:12:43;;;;;;;15.50;8.90;;;;;;;17.21;79.17;99293.19;4980156;28;20565;-82
2023/06/25 04:15:09;;;;;;;18.80;9.55;;;;;;;17.13;80.68;99304.56;4965411;28;20161;-81
2023/06/25 04:17:34;;;;;;;9.77;8.63;;;;;;;17.08;81.46;99298.41;4976120;28;20121;-82
2023/06/25 04:20:00;;;;;;;12.55;8.30;;;;;;;17.14;82.10;99305.38;4979973;28;20061;-81
2023/06/25 04:22:25;;;;;;;21.17;9.07;;;;;;;17.13;83.07;99295.66;4981911;28;20034;-82
2023/06/25 04:24:52;;;;;;;16.73;9.63;;;;;;;17.17;83.86;99294.00;4966890;28;20046;-82
2023/06/25 04:27:19;;;;;;;14.02;9.77;;;;;;;17.21;84.08;99295.09;4969523;28;20402;-82
2023/06/25 04:29:45;;;;;;;14.90;9.15;;;;;;;17.28;84.54;99297.47;4981988;28;20042;-82
2023/06/25 04:32:10;;;;;;;24.83;9.90;;;;;;;17.34;84.62;99305.25;4964415;28;20030;-81
2023/06/25 04:34:35;;;;;;;13.43;10.82;;;;;;;17.43;84.98;99305.44;4950579;28;20042;-81
2023/06/25 04:37:01;;;;;;;17.40;10.40;;;;;;;17.44;84.77;99304.34;4977858;28;20043;-81
2023/06/25 04:39:26;;;;;;;17.80;11.77;;;;;;;17.43;85.11;99298.13;4968024;28;20366;-81
2023/06/25 04:41:51;;;;;;;13.18;11.77;;;;;;;17.55;84.77;99285.13;4983682;28;20077;-81
2023/06/25 04:44:17;;;;;;;14.40;12.02;;;;;;;17.88;84.77;99300.50;4997535;28;20039;-81
2023/06/25 04:46:42;;;;;;;15.45;12.45;;;;;;;17.89;84.03;99285.88;4986458;28;20434;-81
2023/06/25 04:49:09;;;;;;;15.15;12.75;;;;;;;18.05;84.49;99285.72;4953647;28;20094;-81
2023/06/25 04:51:34;;;;;;;15.73;12.40;;;;;;;18.19;84.01;99298.28;4969438;28;20035;-81
2023/06/25 04:54:00;;;;;;;14.57;12.32;;;;;;;18.31;83.73;99289.78;4989765;28;20034;-81
2023/06/25 04:56:25;;;;;;;15.75;13.20;;;;;;;18.43;82.68;99276.66;4983279;28;20849;-81
2023/06/25 04:58:53;;;;;;;14.43;11.57;;;;;;;18.58;81.81;99285.44;4982525;28;20039;-81
2023/06/25 05:01:22;;;;;;;10.75;9.63;;;;;;;18.97;77.04;99279.75;4979449;28;20034;-81
2023/06/25 05:03:48;;;;;;;8.68;7.68;;;;;;;19.45;73.36;99285.81;4981714;28;20921;-81
2023/06/25 05:06:13;;;;;;;14.35;12.07;;;;;;;19.37;77.97;99292.69;4981564;28;20049;-81
2023/06/25 05:08:39;;;;;;;13.50;10.52;;;;;;;19.06;77.24;99290.72;4984241;28;20482;-81
2023/06/25 05:11:04;;;;;;;12.57;11.27;;;;;;;18.97;77.74;99281.66;4984772;28;20037;-81
2023/06/25 05:13:30;;;;;;;13.60;10.32;;;;;;;19.13;78.75;99289.25;4970940;28;20541;-81
2023/06/25 05:15:56;;;;;;;13.35;9.95;;;;;;;19.45;77.96;99299.38;4984236;28;20502;-82
2023/06/25 05:18:21;;;;;;;17.27;10.15;;;;;;;19.58;75.97;99297.78;4977315;28;20027;-81
2023/06/25 05:20:46;;;;;;;8.70;7.88;;;;;;;20.19;70.88;99290.19;4969394;28;20122;-82
2023/06/25 05:23:12;;;;;;;15.50;9.82;;;;;;;20.14;74.70;99301.13;4969990;28;20058;-82
2023/06/25 05:25:37;;;;;;;13.25;9.13;;;;;;;20.20;71.88;99291.81;4979643;28;20058;-81
2023/06/25 05:28:03;;;;;;;11.25;8.30;;;;;;;20.48;69.46;99285.31;4976345;28;20034;-81
2023/06/25 05:30:29;;;;;;;12.95;11.02;;;;;;;19.96;76.69;99291.97;4933540;28;20088;-81
2023/06/25 05:32:55;;;;;;;11.30;8.60;;;;;;;19.90;73.68;99284.22;4974510;28;20524;-82
2023/06/25 05:35:21;;;;;;;11.30;9.05;;;;;;;19.99;75.62;99296.00;4990210;28;20037;-82
2023/06/25 05:37:47;;;;;;;9.50;7.75;;;;;;;20.41;72.08;99286.81;4992455;28;20105;-82
2023/06/25 05:40:13;;;;;;;12.05;10.57;;;;;;;19.79;78.20;99293.66;4990019;28;20708;-82
2023/06/25 05:42:38;;;;;;;12.30;8.20;;;;;;;20.41;70.96;99284.91;4984386;28;20115;-82
2023/06/25 05:45:04;;;;;;;9.93;7.80;;;;;;;20.83;69.00;99279.16;4982900;28;20553;-82
2023/06/25 05:47:29;;;;;;;12.02;8.25;;;;;;;20.63;71.54;99286.91;4980448;28;20038;-82
2023/06/25 05:49:54;;;;;;;9.90;8.63;;;;;;;20.77;70.61;99282.28;4973576;28;20471;-82
2023/06/25 05:52:20;;;;;;;13.27;9.80;;;;;;;20.37;74.95;99272.25;4987906;28;20035;-82
2023/06/25 05:54:45;;;;;;;13.13;10.15;;;;;;;20.52;73.63;99275.47;4974894;28;20394;-82
2023/06/25 05:57:12;;;;;;;9.55;8.55;;;;;;;20.41;72.09;99262.41;4993935;28;20038;-82
2023/06/25 05:59:37;;;;;;;9.50;7.95;;;;;;;20.64;70.45;99272.25;4987464;28;20058;-81
2023/06/25 06:02:03;;;;;;;11.20;9.13;;;;;;;20.47;73.08;99281.00;4966258;28;20065;-81
2023/06/25 06:04:28;;;;;;;12.00;9.70;;;;;;;19.74;76.26;99281.00;4990563;28;20042;-81
2023/06/25 06:06:54;;;;;;;8.50;7.60;;;;;;;20.40;71.54;99275.16;4995972;28;20437;-81
2023/06/25 06:09:19;;;;;;;11.32;8.63;;;;;;;20.82;70.44;99279.44;4986973;28;20038;-82
2023/06/25 06:11:44;;;;;;;14.63;9.27;;;;;;;20.44;73.67;99275.38;4992978;28;20065;-82
2023/06/25 06:14:10;;;;;;;9.40;8.43;;;;;;;20.10;75.01;99265.69;4985700;28;20034;-81
2023/06/25 06:16:35;;;;;;;13.43;8.45;;;;;;;20.75;70.44;99279.06;4981401;28;20022;-82
2023/06/25 06:19:01;;;;;;;8.20;6.53;;;;;;;21.10;69.06;99275.56;4972600;28;20360;-81
2023/06/25 06:21:26;;;;;;;11.75;8.75;;;;;;;20.47;76.04;99282.91;4990081;28;20062;-81
2023/06/25 06:23:52;;;;;;;11.65;8.63;;;;;;;19.96;76.28;99277.63;4986402;28;20065;-81
2023/06/25 06:26:17;;;;;;;10.75;9.50;;;;;;;20.46;75.35;99284.81;4973162;28;20058;-81
2023/06/25 06:28:43;;;;;;;15.68;10.32;;;;;;;19.96;76.62;99272.22;4975645;28;20136;-81
2023/06/25 06:31:08;;;;;;;10.68;7.22;;;;;;;20.51;71.82;99273.84;4983250;28;20467;-82
2023/06/25 06:33:34;;;;;;;13.75;10.13;;;;;;;20.62;72.93;99272.53;4971068;28;20097;-81
2023/06/25 06:35:59;;;;;;;14.13;9.15;;;;;;;20.09;74.75;99272.22;4981426;28;20026;-81
2023/06/25 06:38:25;;;;;;;11.82;9.38;;;;;;;20.24;76.24;99289.34;4976783;28;20051;-81
2023/06/25 06:40:50;;;;;;;8.07;7.22;;;;;;;20.55;73.17;99269.41;4981994;28;20037;-81
2023/06/25 06:43:15;;;;;;;11.65;7.82;;;;;;;21.26;69.23;99276.03;4969328;28;20042;-81
2023/06/25 06:45:41;;;;;;;16.48;8.85;;;;;;;21.51;68.16;99287.06;4980225;28;20478;-81
2023/06/25 06:48:07;;;;;;;11.10;7.32;;;;;;;21.51;67.66;99273.50;4980965;28;20034;-81
2023/06/25 06:50:32;;;;;;;11.23;7.60;;;;;;;21.36;68.89;99275.81;4978064;28;20109;-81
2023/06/25 06:52:58;;;;;;;10.80;7.70;;;;;;;21.48;68.99;99278.75;4964052;28;20031;-81
2023/06/25 06:55:23;;;;;;;11.30;8.80;;;;;;;20.97;69.25;99279.09;4986482;28;20453;-81
2023/06/25 06:57:48;;;;;;;10.15;6.90;;;;;;;21.40;68.32;99268.63;4982190;28;20046;-81
2023/06/25 07:00:15;;;;;;;9.25;8.20;;;;;;;20.79;71.81;99280.84;4971886;28;20461;-81
2023/06/25 07:02:41;;;;;;;8.05;7.03;;;;;;;21.52;67.84;99285.16;4984340;28;20080;-81
2023/06/25 07:05:06;;;;;;;12.30;8.45;;;;;;;20.84;71.61;99272.59;4987158;28;20773;-81
2023/06/25 07:07:32;;;;;;;11.10;9.60;;;;;;;20.60;72.20;99269.31;4985743;28;20045;-81
2023/06/25 07:09:57;;;;;;;9.98;8.73;;;;;;;20.76;72.95;99262.47;4986595;28;20018;-81
2023/06/25 07:12:23;;;;;;;13.80;8.02;;;;;;;20.74;72.08;99275.56;4973320;28;20030;-81
2023/06/25 07:14:48;;;;;;;9.80;8.32;;;;;;;20.51;70.86;99268.44;4969853;28;20037;-81
2023/06/25 07:17:13;;;;;;;9.48;7.85;;;;;;;21.03;72.57;99271.66;4968736;28;20109;-81
2023/06/25 07:19:39;;;;;;;9.13;6.65;;;;;;;21.25;69.18;99271.72;4991321;28;20113;-81
2023/06/25 07:22:05;;;;;;;10.27;7.57;;;;;;;20.74;69.67;99264.69;4990457;28;20046;-81
2023/06/25 07:24:30;;;;;;;11.52;7.70;;;;;;;20.57;69.85;99261.00;4974582;28;20034;-81
2023/06/25 07:26:55;;;;;;;7.50;6.78;;;;;;;21.22;70.02;99269.59;4986911;28;20030;-81
2023/06/25 07:29:21;;;;;;;8.13;7.32;;;;;;;20.97;70.12;99264.75;4988234;28;20038;-81
2023/06/25 07:31:46;;;;;;;7.95;7.15;;;;;;;21.62;68.18;99283.00;4973511;28;20030;-81
2023/06/25 07:34:12;;;;;;;8.95;6.63;;;;;;;21.99;66.53;99281.81;4988104;28;20453;-81
2023/06/25 07:36:37;;;;;;;9.27;7.15;;;;;;;21.83;67.20;99267.03;4988963;28;20027;-81
2023/06/25 07:39:04;;;;;;;7.22;6.53;;;;;;;22.08;66.26;99269.06;4968403;28;20038;-81
2023/06/25 07:41:30;;;;;;;12.27;7.07;;;;;;;21.97;67.54;99277.81;4981481;28;20026;-81
2023/06/25 07:43:55;;;;;;;10.57;7.60;;;;;;;22.16;66.97;99276.47;4990669;28;20037;-82
2023/06/25 07:46:24;;;;;;;7.82;7.03;;;;;;;22.43;65.25;99266.47;4976545;28;20042;-81
2023/06/25 07:48:50;;;;;;;7.75;6.60;;;;;;;22.52;64.80;99270.03;4977721;28;20026;-81
2023/06/25 07:51:15;;;;;;;7.80;6.78;;;;;;;22.54;66.12;99265.84;4979811;28;20041;-81
2023/06/25 07:53:40;;;;;;;7.78;6.70;;;;;;;22.67;64.58;99258.72;4983598;28;20042;-81
2023/06/25 07:56:06;;;;;;;11.32;7.05;;;;;;;22.83;64.13;99271.56;4976849;28;20121;-81
2023/06/25 07:58:33;;;;;;;7.88;6.55;;;;;;;22.74;64.40;99248.16;4971324;28;20539;-82
2023/06/25 08:00:59;;;;;;;10.20;6.88;;;;;;;22.52;66.66;99261.88;4981956;28;20041;-81
2023/06/25 08:03:24;;;;;;;11.32;6.82;;;;;;;22.50;66.88;99267.59;4987868;28;20030;-79
2023/06/25 08:05:50;;;;;;;9.27;8.25;;;;;;;22.36;68.54;99256.06;4971938;28;20030;-79
2023/06/25 08:08:15;;;;;;;10.02;8.00;;;;;;;22.42;67.26;99249.34;4982782;28;20038;-79
2023/06/25 08:10:40;;;;;;;7.53;6.68;;;;;;;22.79;65.66;99245.28;4986083;28;20057;-79
2023/06/25 08:13:06;;;;;;;9.88;7.03;;;;;;;22.88;68.90;99248.81;4969340;28;20041;-80
2023/06/25 08:15:31;;;;;;;7.90;6.95;;;;;;;23.06;67.04;99255.88;4983111;28;20085;-79
2023/06/25 08:17:57;;;;;;;8.52;7.72;;;;;;;22.89;67.40;99255.88;4983803;28;20117;-80
2023/06/25 08:20:22;;;;;;;9.32;8.02;;;;;;;22.71;69.00;99249.63;4987402;28;20030;-79
2023/06/25 08:22:48;;;;;;;6.97;6.38;;;;;;;23.11;65.44;99244.81;4980867;28;20058;-80
2023/06/25 08:25:21;;;;;;;8.88;7.88;;;;;;;23.15;66.61;99245.81;4991727;28;20048;-80
2023/06/25 08:27:46;;;;;;;8.40;6.80;;;;;;;23.34;65.33;99246.28;4969749;28;20113;-80
2023/06/25 08:30:12;;;;;;;9.10;7.70;;;;;;;23.05;68.68;99246.09;4981016;28;20455;-80
2023/06/25 08:32:37;;;;;;;9.88;7.00;;;;;;;22.68;67.60;99249.44;4981964;28;20045;-79
2023/06/25 08:35:03;;;;;;;10.15;6.75;;;;;;;23.39;65.24;99237.16;4985142;28;20478;-79
2023/06/25 08:37:28;;;;;;;7.10;6.40;;;;;;;23.34;65.77;99235.41;4978692;28;20038;-78
2023/06/25 08:39:54;;;;;;;7.95;7.10;;;;;;;23.69;64.33;99242.38;4980644;28;20038;-78
2023/06/25 08:42:19;;;;;;;9.00;6.60;;;;;;;23.74;64.00;99244.13;4984983;28;20042;-78
2023/06/25 08:44:45;;;;;;;8.75;7.82;;;;;;;23.53;65.33;99237.75;4981310;28;20034;-80
2023/06/25 08:47:13;;;;;;;9.65;7.57;;;;;;;23.53;63.89;99219.50;4971015;28;20121;-78
2023/06/25 08:49:42;;;;;;;9.93;7.22;;;;;;;23.99;63.01;99232.34;4986929;28;20042;-78
2023/06/25 08:52:09;;;;;;;8.65;6.68;;;;;;;24.05;63.28;99235.72;4979717;28;20023;-77
2023/06/25 08:54:34;;;;;;;9.02;6.82;;;;;;;24.18;62.57;99229.25;4967941;28;20053;-80
2023/06/25 08:57:00;;;;;;;8.60;6.82;;;;;;;24.18;63.41;99240.16;4981335;28;20499;-78
2023/06/25 08:59:25;;;;;;;9.25;7.47;;;;;;;24.02;65.12;99239.06;4989121;28;20043;-80
2023/06/25 09:01:51;;;;;;;6.68;6.13;;;;;;;24.39;62.15;99230.09;4976356;28;20037;-80
2023/06/25 09:04:16;;;;;;;9.10;6.18;;;;;;;24.45;61.48;99221.38;4990409;28;20461;-78
2023/06/25 09:06:42;;;;;;;7.70;6.88;;;;;;;24.38;62.04;99225.75;4986706;28;20025;-78
2023/06/25 09:09:10;;;;;;;12.60;7.03;;;;;;;24.26;63.41;99228.41;4994507;28;20026;-78
2023/06/25 09:11:40;;;;;;;10.18;6.55;;;;;;;24.35;61.97;99234.63;4991573;28;20027;-78
2023/06/25 09:14:06;;;;;;;7.30;6.60;;;;;;;24.48;61.82;99214.47;4980046;28;20042;-78
2023/06/25 09:16:32;;;;;;;7.00;6.30;;;;;;;24.65;61.45;99222.53;4985297;28;20022;-78
2023/06/25 09:18:59;;;;;;;9.00;6.60;;;;;;;24.81;60.28;99218.13;4985592;28;20034;-78
2023/06/25 09:21:24;;;;;;;6.93;6.22;;;;;;;24.80;60.18;99216.53;4993667;28;20034;-78
2023/06/25 09:23:53;;;;;;;7.90;7.07;;;;;;;24.61;60.93;99216.16;4986129;28;20026;-77
2023/06/25 09:26:18;;;;;;;7.90;6.47;;;;;;;24.85;60.19;99208.16;4991169;28;20038;-77
2023/06/25 09:28:59;;;;;;;8.00;6.90;;;;;;;24.93;60.04;99209.19;4989736;28;20101;-78
2023/06/25 09:31:25;;;;;;;7.28;6.57;;;;;;;24.84;58.36;99203.81;4988004;28;20045;-78
2023/06/25 09:33:51;;;;;;;8.27;5.75;;;;;;;24.93;59.09;99192.81;4987265;28;20038;-77
2023/06/25 09:36:20;;;;;;;7.30;6.28;;;;;;;25.14;59.04;99204.53;4991368;28;20041;-78
2023/06/25 09:38:46;;;;;;;7.93;6.50;;;;;;;25.19;58.73;99194.19;4989445;28;20392;-78
2023/06/25 09:41:13;;;;;;;8.50;6.95;;;;;;;25.16;57.58;99203.03;4963098;28;20050;-78
2023/06/25 09:43:40;;;;;;;7.05;6.45;;;;;;;25.31;58.63;99199.66;4964387;28;20475;-78
2023/06/25 09:46:06;;;;;;;11.45;6.63;;;;;;;25.31;58.51;99190.69;4958723;28;20037;-78
2023/06/25 09:48:32;;;;;;;6.55;5.95;;;;;;;25.58;57.37;99190.09;4949562;28;20038;-78
2023/06/25 09:50:58;;;;;;;6.72;5.95;;;;;;;25.61;55.25;99205.03;4965404;28;20029;-78
2023/06/25 09:53:28;;;;;;;7.45;6.70;;;;;;;25.35;56.53;99201.75;4985176;28;20042;-79
2023/06/25 09:55:55;;;;;;;8.50;6.97;;;;;;;25.37;56.14;99196.75;4972870;28;20031;-78
2023/06/25 09:58:21;;;;;;;9.32;7.22;;;;;;;25.61;55.13;99185.91;4984123;28;20117;-79
2023/06/25 10:00:47;;;;;;;10.15;6.40;;;;;;;25.36;55.58;99195.16;4985017;28;20490;-78
2023/06/25 10:03:15;;;;;;;7.90;7.03;;;;;;;25.55;54.61;99192.72;4985878;28;20041;-78
2023/06/25 10:05:40;;;;;;;7.35;6.50;;;;;;;25.93;54.85;99182.28;4967346;28;20034;-78
2023/06/25 10:08:06;;;;;;;7.15;6.55;;;;;;;26.20;54.54;99181.66;4963399;28;20227;-79
2023/06/25 10:10:34;;;;;;;7.40;6.60;;;;;;;26.33;54.32;99179.69;4987110;28;20030;-79
2023/06/25 10:13:03;;;;;;;7.53;6.82;;;;;;;26.04;55.88;99173.28;4965265;28;20030;-80
2023/06/25 10:15:33;;;;;;;7.35;6.65;;;;;;;25.95;54.95;99174.53;4985967;28;20058;-80
2023/06/25 10:18:01;;;;;;;7.57;6.45;;;;;;;26.35;54.44;99172.75;4986124;28;20026;-80
2023/06/25 10:20:37;;;;;;;8.65;7.03;;;;;;;25.99;55.03;99172.75;4975726;28;20022;-79
2023/06/25 10:23:13;;;;;;;7.72;6.93;;;;;;;26.32;54.84;99165.19;4977448;28;20085;-80
2023/06/25 10:25:39;;;;;;;;;;;;;;;26.48;54.64;99165.28;4977003;28;20041;-80
2023/06/25 10:28:09;;;;;;;9.35;6.82;;;;;;;26.90;53.19;99155.63;4989219;28;19940;-80
2023/06/25 10:30:40;;;;;;;8.02;6.38;;;;;;;27.05;53.32;99156.81;4973961;28;20403;-80
2023/06/25 10:33:06;;;;;;;8.13;6.85;;;;;;;27.07;53.23;99141.63;4984582;28;20042;-79
2023/06/25 10:35:40;;;;;;;8.32;6.88;;;;;;;27.02;52.81;99157.53;4970275;28;20050;-79
2023/06/25 10:38:05;;;;;;;11.57;6.97;;;;;;;26.93;53.95;99156.88;4983074;28;20031;-80
2023/06/25 10:40:38;;;;;;;7.57;6.95;;;;;;;26.68;54.22;99150.66;4976500;28;20033;-79
2023/06/25 10:43:04;;;;;;;7.32;6.65;;;;;;;26.81;53.48;99140.47;4968890;28;20442;-80
2023/06/25 10:45:30;;;;;;;9.15;7.43;;;;;;;27.40;53.39;99141.38;4979828;28;20030;-79
2023/06/25 10:48:16;;;;;;;8.40;7.50;;;;;;;27.13;51.51;99142.19;4982288;28;20089;-79
2023/06/25 10:50:41;;;;;;;7.28;6.57;;;;;;;26.81;53.09;99140.47;4980666;28;20034;-79
2023/06/25 10:53:21;;;;;;;9.15;6.68;;;;;;;27.56;52.17;99133.97;4965972;28;20026;-80
2023/06/25 10:55:53;;;;;;;7.65;6.97;;;;;;;27.36;51.92;99143.22;4981962;28;20030;-79
2023/06/25 10:58:24;;;;;;;8.32;7.13;;;;;;;27.24;52.08;99129.53;4988402;28;20169;-79
2023/06/25 11:00:54;;;;;;;11.32;7.15;;;;;;;26.87;50.97;99122.63;4972942;28;20978;-79
2023/06/25 11:03:20;;;;;;;7.18;6.50;;;;;;;27.05;53.05;99124.75;4954045;28;20041;-79
2023/06/25 11:05:46;;;;;;;9.65;6.60;;;;;;;27.62;51.59;99118.81;4957221;28;20379;-79
2023/06/25 11:08:12;;;;;;;7.47;6.53;;;;;;;27.81;51.04;99127.13;4968914;28;20030;-79
2023/06/25 11:10:38;;;;;;;7.90;6.55;;;;;;;27.82;50.50;99128.72;4982394;28;20072;-79
2023/06/25 11:13:04;;;;;;;8.20;7.07;;;;;;;28.18;48.79;99113.91;4981522;28;20117;-79
2023/06/25 11:15:32;;;;;;;10.32;6.80;;;;;;;28.77;49.98;99116.38;4973354;28;20027;-79
2023/06/25 11:17:59;;;;;;;8.23;7.03;;;;;;;28.00;48.39;99104.50;4973665;28;20042;-79
2023/06/25 11:20:26;;;;;;;7.32;6.63;;;;;;;28.49;51.14;99107.53;4985099;28;20038;-79
2023/06/25 11:22:51;;;;;;;8.02;7.32;;;;;;;28.53;49.61;99100.16;4975044;28;20034;-80
2023/06/25 11:25:20;;;;;;;9.80;6.93;;;;;;;29.08;49.55;99112.66;4981158;28;20410;-79